Airports

 

 

Airport Name Latest METAR Visual Conditions
Atlantic City Int. (ACY) KACY 220654Z 08003KT 10SM OVC015 16/12 A3007 RMK AO2 SLP183 T01560122 MVFR
Baltimore International Airport (BWI) KBWI 220654Z 14003KT 10SM OVC012 16/13 A3006 RMK AO2 SLP177 T01560133 MVFR
Washington National Airport (DCA) KDCA 220652Z 17007KT 10SM BKN012 OVC018 15/13 A3007 RMK AO2 SLP180 T01500128 MVFR
Dulles International Airport (IAD) KIAD 220652Z 15003KT 10SM OVC008 13/12 A3005 RMK AO2 SLP176 T01330117 IFR
Norfolk International Airport (ORF) KORF 220651Z 00000KT 10SM OVC014 16/14 A3006 RMK AO2 SLP180 T01610139 MVFR
Raleigh International Airport (RDU) KRDU 220651Z 14007KT 3SM BR OVC003 16/15 A3004 RMK AO2 SFC VIS 4 SLP169 T01560150 LIFR
Richmond International Airport (RIC) KRIC 220654Z 17010KT 10SM OVC005 14/13 A3006 RMK AO2 SLP184 T01390128 IFR
Roanoke Regional Airport (ROA) KROA 220702Z 13008KT 2SM BR OVC002 14/14 A3001 RMK AO2 SFC VIS 5 T01440139 LIFR